sensor_id;sensor_type;location;lat;lon;timestamp;temperature;humidity
15259;DHT22;34462;51.368;12.364;2022-08-21T16:37:11;23.10;99.90
15259;DHT22;34462;51.368;12.364;2022-08-21T16:39:49;23.00;99.90
15259;DHT22;34462;51.368;12.364;2022-08-21T16:42:22;23.00;99.90
15259;DHT22;34462;51.368;12.364;2022-08-21T16:44:53;22.90;99.90
15259;DHT22;34462;51.368;12.364;2022-08-21T16:47:22;22.90;99.90
15259;DHT22;34462;51.368;12.364;2022-08-21T16:49:53;22.90;99.90
15259;DHT22;34462;51.368;12.364;2022-08-21T16:52:22;22.90;99.90
15259;DHT22;34462;51.368;12.364;2022-08-21T16:54:50;23.00;99.90
15259;DHT22;34462;51.368;12.364;2022-08-21T16:57:18;23.00;99.90
15259;DHT22;34462;51.368;12.364;2022-08-21T16:59:47;22.90;99.90
15259;DHT22;34462;51.368;12.364;2022-08-21T17:02:23;22.90;99.90
15259;DHT22;34462;51.368;12.364;2022-08-21T17:04:56;22.80;99.90
15259;DHT22;34462;51.368;12.364;2022-08-21T17:07:25;22.80;99.90
15259;DHT22;34462;51.368;12.364;2022-08-21T17:09:54;22.70;99.90
15259;DHT22;34462;51.368;12.364;2022-08-21T17:12:22;22.60;99.90
15259;DHT22;34462;51.368;12.364;2022-08-21T17:14:50;22.50;99.90
15259;DHT22;34462;51.368;12.364;2022-08-21T17:17:19;22.50;99.90
15259;DHT22;34462;51.368;12.364;2022-08-21T17:19:47;22.50;99.90
15259;DHT22;34462;51.368;12.364;2022-08-21T17:22:15;22.50;99.90
15259;DHT22;34462;51.368;12.364;2022-08-21T17:24:45;22.40;99.90
15259;DHT22;34462;51.368;12.364;2022-08-21T17:27:13;22.30;99.90
15259;DHT22;34462;51.368;12.364;2022-08-21T17:29:41;22.30;99.90
15259;DHT22;34462;51.368;12.364;2022-08-21T17:32:16;22.20;99.90
15259;DHT22;34462;51.368;12.364;2022-08-21T17:34:45;22.10;99.90
15259;DHT22;34462;51.368;12.364;2022-08-21T17:37:14;22.10;99.90
15259;DHT22;34462;51.368;12.364;2022-08-21T17:39:42;22.10;99.90
15259;DHT22;34462;51.368;12.364;2022-08-21T17:42:12;22.00;99.90
15259;DHT22;34462;51.368;12.364;2022-08-21T17:44:44;21.90;99.90
15259;DHT22;34462;51.368;12.364;2022-08-21T17:47:12;21.80;99.90
15259;DHT22;34462;51.368;12.364;2022-08-21T17:49:41;21.80;99.90
15259;DHT22;34462;51.368;12.364;2022-08-21T17:52:09;21.70;99.90
15259;DHT22;34462;51.368;12.364;2022-08-21T17:54:37;21.70;99.90
15259;DHT22;34462;51.368;12.364;2022-08-21T17:57:06;21.60;99.90
15259;DHT22;34462;51.368;12.364;2022-08-21T17:59:37;21.50;99.90
15259;DHT22;34462;51.368;12.364;2022-08-21T18:02:05;21.50;99.90
15259;DHT22;34462;51.368;12.364;2022-08-21T18:04:46;21.40;99.90
15259;DHT22;34462;51.368;12.364;2022-08-21T18:07:16;21.30;99.90
15259;DHT22;34462;51.368;12.364;2022-08-21T18:09:58;21.20;99.90
15259;DHT22;34462;51.368;12.364;2022-08-21T18:12:27;21.10;99.90
15259;DHT22;34462;51.368;12.364;2022-08-21T18:14:59;21.00;99.90
15259;DHT22;34462;51.368;12.364;2022-08-21T18:17:28;20.90;99.90
15259;DHT22;34462;51.368;12.364;2022-08-21T18:19:59;20.90;99.90
15259;DHT22;34462;51.368;12.364;2022-08-21T18:22:28;20.80;99.90
15259;DHT22;34462;51.368;12.364;2022-08-21T18:24:56;20.70;99.90
15259;DHT22;34462;51.368;12.364;2022-08-21T18:27:24;20.60;99.90
15259;DHT22;34462;51.368;12.364;2022-08-21T18:29:59;20.50;99.90
15259;DHT22;34462;51.368;12.364;2022-08-21T18:32:28;20.40;99.90
15259;DHT22;34462;51.368;12.364;2022-08-21T18:34:59;20.30;99.90
15259;DHT22;34462;51.368;12.364;2022-08-21T18:37:29;20.30;99.90
15259;DHT22;34462;51.368;12.364;2022-08-21T18:39:57;20.20;99.90
15259;DHT22;34462;51.368;12.364;2022-08-21T18:42:27;20.10;99.90
15259;DHT22;34462;51.368;12.364;2022-08-21T18:45:07;20.00;99.90
15259;DHT22;34462;51.368;12.364;2022-08-21T18:47:41;19.90;99.90
15259;DHT22;34462;51.368;12.364;2022-08-21T18:50:15;19.90;99.90
15259;DHT22;34462;51.368;12.364;2022-08-21T18:52:44;19.90;99.90
15259;DHT22;34462;51.368;12.364;2022-08-21T18:55:19;20.00;99.90
15259;DHT22;34462;51.368;12.364;2022-08-21T18:57:50;20.10;99.90
15259;DHT22;34462;51.368;12.364;2022-08-21T19:00:22;20.20;99.90
15259;DHT22;34462;51.368;12.364;2022-08-21T19:02:53;20.20;99.90
15259;DHT22;34462;51.368;12.364;2022-08-21T19:05:23;20.20;99.90
15259;DHT22;34462;51.368;12.364;2022-08-21T19:07:52;20.10;99.90
15259;DHT22;34462;51.368;12.364;2022-08-21T19:10:22;20.10;99.90
15259;DHT22;34462;51.368;12.364;2022-08-21T19:12:56;20.10;99.90
15259;DHT22;34462;51.368;12.364;2022-08-21T19:15:28;20.00;99.90
15259;DHT22;34462;51.368;12.364;2022-08-21T19:17:57;20.00;99.90
15259;DHT22;34462;51.368;12.364;2022-08-21T19:20:28;19.90;99.90
15259;DHT22;34462;51.368;12.364;2022-08-21T19:23:01;19.90;99.90
15259;DHT22;34462;51.368;12.364;2022-08-21T19:25:32;19.90;99.90
15259;DHT22;34462;51.368;12.364;2022-08-21T19:28:02;19.80;99.90
15259;DHT22;34462;51.368;12.364;2022-08-21T19:30:41;19.80;99.90
15259;DHT22;34462;51.368;12.364;2022-08-21T19:33:20;19.70;99.90
15259;DHT22;34462;51.368;12.364;2022-08-21T19:35:51;19.70;99.90
15259;DHT22;34462;51.368;12.364;2022-08-21T19:38:20;19.70;99.90
15259;DHT22;34462;51.368;12.364;2022-08-21T19:40:48;19.70;99.90
15259;DHT22;34462;51.368;12.364;2022-08-21T19:43:18;19.70;99.90
15259;DHT22;34462;51.368;12.364;2022-08-21T19:45:52;19.60;99.90
15259;DHT22;34462;51.368;12.364;2022-08-21T19:48:23;19.60;99.90
15259;DHT22;34462;51.368;12.364;2022-08-21T19:50:52;19.60;99.90
15259;DHT22;34462;51.368;12.364;2022-08-21T19:53:20;19.50;99.90
15259;DHT22;34462;51.368;12.364;2022-08-21T19:55:48;19.50;99.90
15259;DHT22;34462;51.368;12.364;2022-08-21T19:58:25;19.50;99.90
15259;DHT22;34462;51.368;12.364;2022-08-21T20:01:02;19.40;99.90
15259;DHT22;34462;51.368;12.364;2022-08-21T20:03:42;19.40;99.90
15259;DHT22;34462;51.368;12.364;2022-08-21T20:06:21;19.40;99.90
15259;DHT22;34462;51.368;12.364;2022-08-21T20:08:51;19.30;99.90
15259;DHT22;34462;51.368;12.364;2022-08-21T20:11:26;19.30;99.90
15259;DHT22;34462;51.368;12.364;2022-08-21T20:13:58;19.30;99.90
15259;DHT22;34462;51.368;12.364;2022-08-21T20:16:29;19.20;99.90
15259;DHT22;34462;51.368;12.364;2022-08-21T20:18:58;19.20;99.90
15259;DHT22;34462;51.368;12.364;2022-08-21T20:21:29;19.20;99.90
15259;DHT22;34462;51.368;12.364;2022-08-21T20:24:10;19.10;99.90
15259;DHT22;34462;51.368;12.364;2022-08-21T20:26:41;19.10;99.90
15259;DHT22;34462;51.368;12.364;2022-08-21T20:29:31;19.10;99.90
15259;DHT22;34462;51.368;12.364;2022-08-21T20:32:07;19.00;99.90
15259;DHT22;34462;51.368;12.364;2022-08-21T20:34:38;18.90;99.90
15259;DHT22;34462;51.368;12.364;2022-08-21T20:37:10;18.90;99.90
15259;DHT22;34462;51.368;12.364;2022-08-21T20:39:47;18.90;99.90
15259;DHT22;34462;51.368;12.364;2022-08-21T20:42:16;18.90;99.90
15259;DHT22;34462;51.368;12.364;2022-08-21T20:44:44;18.90;99.90
15259;DHT22;34462;51.368;12.364;2022-08-21T20:47:14;18.80;99.90
15259;DHT22;34462;51.368;12.364;2022-08-21T20:49:46;18.80;99.90
15259;DHT22;34462;51.368;12.364;2022-08-21T20:52:19;18.80;99.90
15259;DHT22;34462;51.368;12.364;2022-08-21T20:54:55;18.70;99.90
15259;DHT22;34462;51.368;12.364;2022-08-21T20:57:33;18.70;99.90
15259;DHT22;34462;51.368;12.364;2022-08-21T21:00:11;18.70;99.90
15259;DHT22;34462;51.368;12.364;2022-08-21T21:02:48;18.60;99.90
15259;DHT22;34462;51.368;12.364;2022-08-21T21:05:22;18.60;99.90
15259;DHT22;34462;51.368;12.364;2022-08-21T21:08:06;18.60;99.90
15259;DHT22;34462;51.368;12.364;2022-08-21T21:10:42;18.60;99.90
15259;DHT22;34462;51.368;12.364;2022-08-21T21:13:19;18.50;99.90
15259;DHT22;34462;51.368;12.364;2022-08-21T21:15:55;18.50;99.90
15259;DHT22;34462;51.368;12.364;2022-08-21T21:18:32;18.50;99.90
15259;DHT22;34462;51.368;12.364;2022-08-21T21:21:10;18.40;99.90
15259;DHT22;34462;51.368;12.364;2022-08-21T21:23:51;18.40;99.90
15259;DHT22;34462;51.368;12.364;2022-08-21T21:26:26;18.40;99.90
15259;DHT22;34462;51.368;12.364;2022-08-21T21:29:07;18.40;99.90
15259;DHT22;34462;51.368;12.364;2022-08-21T21:31:39;18.30;99.90
15259;DHT22;34462;51.368;12.364;2022-08-21T21:34:09;18.30;99.90
15259;DHT22;34462;51.368;12.364;2022-08-21T21:36:47;18.20;99.90
15259;DHT22;34462;51.368;12.364;2022-08-21T21:39:27;18.20;99.90
15259;DHT22;34462;51.368;12.364;2022-08-21T21:42:10;18.10;99.90
15259;DHT22;34462;51.368;12.364;2022-08-21T21:45:13;18.10;99.90
15259;DHT22;34462;51.368;12.364;2022-08-21T21:48:00;18.10;99.90
15259;DHT22;34462;51.368;12.364;2022-08-21T21:50:50;18.10;99.90
15259;DHT22;34462;51.368;12.364;2022-08-21T21:53:55;18.10;99.90
15259;DHT22;34462;51.368;12.364;2022-08-21T21:56:36;18.00;99.90
15259;DHT22;34462;51.368;12.364;2022-08-21T21:59:27;18.00;99.90
15259;DHT22;34462;51.368;12.364;2022-08-21T22:02:15;18.00;99.90
15259;DHT22;34462;51.368;12.364;2022-08-21T22:04:59;17.90;99.90
15259;DHT22;34462;51.368;12.364;2022-08-21T22:07:38;17.90;99.90
15259;DHT22;34462;51.368;12.364;2022-08-21T22:10:16;17.80;99.90
15259;DHT22;34462;51.368;12.364;2022-08-21T22:13:07;17.80;99.90
15259;DHT22;34462;51.368;12.364;2022-08-21T22:15:53;17.80;99.90
15259;DHT22;34462;51.368;12.364;2022-08-21T22:18:25;17.80;99.90
15259;DHT22;34462;51.368;12.364;2022-08-21T22:21:00;17.80;99.90
15259;DHT22;34462;51.368;12.364;2022-08-21T22:23:37;17.70;99.90
15259;DHT22;34462;51.368;12.364;2022-08-21T22:26:13;17.70;99.90
15259;DHT22;34462;51.368;12.364;2022-08-21T22:28:47;17.70;99.90
15259;DHT22;34462;51.368;12.364;2022-08-21T22:31:19;17.70;99.90
15259;DHT22;34462;51.368;12.364;2022-08-21T22:34:08;17.70;99.90
15259;DHT22;34462;51.368;12.364;2022-08-21T22:36:46;17.60;99.90
15259;DHT22;34462;51.368;12.364;2022-08-21T22:39:29;17.60;99.90
15259;DHT22;34462;51.368;12.364;2022-08-21T22:42:08;17.50;99.90
15259;DHT22;34462;51.368;12.364;2022-08-21T22:44:50;17.40;99.90
15259;DHT22;34462;51.368;12.364;2022-08-21T22:47:22;17.40;99.90
15259;DHT22;34462;51.368;12.364;2022-08-21T22:49:53;17.30;99.90
15259;DHT22;34462;51.368;12.364;2022-08-21T22:52:33;17.30;99.90
15259;DHT22;34462;51.368;12.364;2022-08-21T22:55:20;17.30;99.90
15259;DHT22;34462;51.368;12.364;2022-08-21T22:58:06;17.30;99.90
15259;DHT22;34462;51.368;12.364;2022-08-21T23:00:47;17.30;99.90
15259;DHT22;34462;51.368;12.364;2022-08-21T23:03:25;17.30;99.90
15259;DHT22;34462;51.368;12.364;2022-08-21T23:05:59;17.30;99.90
15259;DHT22;34462;51.368;12.364;2022-08-21T23:08:39;17.20;99.90
15259;DHT22;34462;51.368;12.364;2022-08-21T23:11:15;17.20;99.90
15259;DHT22;34462;51.368;12.364;2022-08-21T23:13:50;17.20;99.90
15259;DHT22;34462;51.368;12.364;2022-08-21T23:16:32;17.20;99.90
15259;DHT22;34462;51.368;12.364;2022-08-21T23:19:22;17.20;99.90
15259;DHT22;34462;51.368;12.364;2022-08-21T23:22:14;17.20;99.90
15259;DHT22;34462;51.368;12.364;2022-08-21T23:25:02;17.10;99.90
15259;DHT22;34462;51.368;12.364;2022-08-21T23:27:52;17.10;99.90
15259;DHT22;34462;51.368;12.364;2022-08-21T23:30:36;17.10;99.90
15259;DHT22;34462;51.368;12.364;2022-08-21T23:33:25;17.10;99.90
15259;DHT22;34462;51.368;12.364;2022-08-21T23:36:15;17.00;99.90
15259;DHT22;34462;51.368;12.364;2022-08-21T23:39:22;17.00;99.90
15259;DHT22;34462;51.368;12.364;2022-08-21T23:42:10;17.00;99.90
15259;DHT22;34462;51.368;12.364;2022-08-21T23:45:05;17.00;99.90
15259;DHT22;34462;51.368;12.364;2022-08-21T23:47:48;16.80;99.90
15259;DHT22;34462;51.368;12.364;2022-08-21T23:50:28;16.80;99.90
15259;DHT22;34462;51.368;12.364;2022-08-21T23:53:13;16.80;99.90
15259;DHT22;34462;51.368;12.364;2022-08-21T23:56:08;16.80;99.90
15259;DHT22;34462;51.368;12.364;2022-08-21T23:58:52;16.70;99.90
